^^
Grace C. Lehan Memorial Weather Station Historical Data
Daily Summary for January 13, 2021 Units:  Metric    English   Both
Daily Weekly Monthly Yearly
  High: Low: Average:
Temperature: 16.7 °C 3.1 °C 7.8 °C
Dew Point: 11 °C 1.8 °C 5.5 °C
Humidity: 97% 47.1% 87%
Wind Speed: 18.8km/h 0km/h 2.4km/h
Wind Gust: 48.3km/h - -
Wind- - WSW
Pressure: 1012.4 hPa 997.9 hPa -
Precipitation: 10.41 mm    
 
 
Tabular Data for January 13, 2021
Time Temperature Dew Point Pressure Wind Wind Speed Wind Gust Humidity Rainfall Rate (Hourly) solar
00:04 7.1 °C 6.2 °C 1012.1 hPa Calm     94% 0 mm 0 W/m2
00:09 7 °C 6.1 °C 1012.1 hPa Calm     94% 0 mm 0 W/m2
00:14 6.9 °C 6 °C 1012.1 hPa Calm     94% 0 mm 0 W/m2
00:19 6.8 °C 5.9 °C 1012.1 hPa Calm     94% 0 mm 0 W/m2
00:24 6.8 °C 5.8 °C 1012.1 hPa Calm     94% 0 mm 0 W/m2
00:29 6.7 °C 5.8 °C 1012.1 hPa Calm     94.3% 0 mm 0 W/m2
00:34 6.7 °C 5.9 °C 1012.1 hPa Calm     95% 0 mm 0 W/m2
00:39 6.6 °C 5.8 °C 1012.1 hPa Calm     94.9% 0 mm 0 W/m2
00:44 6.5 °C 5.6 °C 1012.1 hPa Calm     94.4% 0 mm 0 W/m2
00:49 6.4 °C 5.5 °C 1012.1 hPa Calm     94.2% 0 mm 0 W/m2
00:54 6.3 °C 5.6 °C 1012.1 hPa Calm     95% 0 mm 0 W/m2
00:59 6.3 °C 5.5 °C 1012.1 hPa Calm     95% 0 mm 0 W/m2
01:04 6.2 °C 5.5 °C 1012.1 hPa Calm     95% 0 mm 0 W/m2
01:09 6.2 °C 5.5 °C 1012.1 hPa Calm     95% 0 mm 0 W/m2
01:14 6.2 °C 5.4 °C 1012.1 hPa Calm     95% 0 mm 0 W/m2
01:19 6.1 °C 5.3 °C 1012.4 hPa Calm     95% 0 mm 0 W/m2
01:24 5.9 °C 5.2 °C 1012.1 hPa Calm     95% 0 mm 0 W/m2
01:29 5.9 °C 5.2 °C 1012.1 hPa Calm     95% 0 mm 0 W/m2
01:34 5.8 °C 5.1 °C 1012.1 hPa Calm     95% 0 mm 0 W/m2
01:39 5.7 °C 5 °C 1012.1 hPa Calm     95% 0 mm 0 W/m2
01:44 5.7 °C 4.9 °C 1012.1 hPa Calm     95% 0 mm 0 W/m2
01:49 5.6 °C 4.8 °C 1012.1 hPa Calm     95% 0 mm 0 W/m2
01:54 5.5 °C 4.8 °C 1012.1 hPa Calm     95% 0 mm 0 W/m2
01:59 5.5 °C 4.7 °C 1012.1 hPa Calm     95% 0 mm 0 W/m2
02:04 5.4 °C 4.7 °C 1012.1 hPa Calm     95% 0 mm 0 W/m2
02:09 5.3 °C 4.6 °C 1012.1 hPa Calm     95% 0 mm 0 W/m2
02:14 5.2 °C 4.4 °C 1011.7 hPa Calm     95% 0 mm 0 W/m2
02:19 5.1 °C 4.4 °C 1011.7 hPa Calm     95% 0 mm 0 W/m2
02:24 5.1 °C 4.3 °C 1011.7 hPa Calm     95% 0 mm 0 W/m2
02:29 5 °C 4.3 °C 1011.7 hPa Calm     95% 0 mm 0 W/m2
02:34 4.9 °C 4.2 °C 1011.7 hPa Calm     95% 0 mm 0 W/m2
02:39 4.9 °C 4.2 °C 1011.4 hPa Calm     95% 0 mm 0 W/m2
02:44 4.9 °C 4.2 °C 1011.4 hPa Calm     95% 0 mm 0 W/m2
02:49 4.9 °C 4.2 °C 1011.1 hPa Calm     95% 0 mm 0 W/m2
02:54 4.9 °C 4.2 °C 1011.1 hPa Calm     95% 0 mm 0 W/m2
02:59 4.8 °C 4.1 °C 1011.1 hPa Calm     95% 0 mm 0 W/m2
03:04 4.8 °C 4.1 °C 1011.1 hPa Calm     95% 0 mm 0 W/m2
03:09 4.7 °C 3.9 °C 1011.1 hPa Calm     95% 0 mm 0 W/m2
03:14 4.6 °C 3.9 °C 1011.1 hPa Calm     95% 0 mm 0 W/m2
03:19 4.5 °C 3.8 °C 1011.1 hPa Calm     95% 0 mm 0 W/m2
03:24 4.6 °C 3.8 °C 1011.1 hPa Calm     95% 0 mm 0 W/m2
03:29 4.6 °C 3.8 °C 1010.7 hPa Calm     95% 0 mm 0 W/m2
03:34 4.6 °C 3.8 °C 1011.1 hPa Calm     95% 0 mm 0 W/m2
03:39 4.6 °C 3.8 °C 1011.1 hPa Calm     95% 0 mm 0 W/m2
03:44 4.6 °C 3.8 °C 1010.7 hPa Calm     95% 0 mm 0 W/m2
03:49 4.4 °C 3.7 °C 1010.7 hPa Calm     95% 0 mm 0 W/m2
03:54 4.4 °C 3.7 °C 1011.1 hPa Calm     95% 0 mm 0 W/m2
03:59 4.3 °C 3.6 °C 1011.1 hPa Calm     95% 0 mm 0 W/m2
04:09 4.3 °C 3.6 °C 1011.4 hPa Calm     95% 0 mm 0 W/m2
04:14 4.3 °C 3.6 °C 1011.4 hPa Calm     95% 0 mm 0 W/m2
04:19 4.3 °C 3.6 °C 1011.4 hPa Calm     95% 0 mm 0 W/m2
04:24 4.3 °C 3.6 °C 1011.4 hPa Calm     95% 0 mm 0 W/m2
04:29 4.3 °C 3.6 °C 1011.4 hPa Calm     95% 0 mm 0 W/m2
04:34 4.3 °C 3.6 °C 1011.4 hPa Calm     95% 0 mm 0 W/m2
04:39 4.2 °C 3.5 °C 1011.4 hPa Calm     95% 0 mm 0 W/m2
04:44 4.2 °C 3.6 °C 1011.4 hPa Calm     95.8% 0 mm 0 W/m2
04:49 4.2 °C 3.6 °C 1011.4 hPa Calm     96% 0 mm 0 W/m2
04:54 4.2 °C 3.6 °C 1011.4 hPa Calm     96% 0 mm 0 W/m2
04:59 4.1 °C 3.4 °C 1011.4 hPa Calm     95.3% 0 mm 0 W/m2
05:04 4.1 °C 3.3 °C 1011.4 hPa Calm     95% 0 mm 0 W/m2
05:09 4.1 °C 3.3 °C 1011.7 hPa Calm     95% 0 mm 0 W/m2
05:14 4 °C 3.3 °C 1011.7 hPa Calm     95% 0 mm 0 W/m2
05:19 3.9 °C 3.2 °C 1011.7 hPa Calm     95% 0 mm 0 W/m2
05:24 3.8 °C 3.1 °C 1011.7 hPa Calm     95% 0 mm 0 W/m2
05:29 3.8 °C 3.2 °C 1011.7 hPa Calm     95.7% 0 mm 0 W/m2
05:34 3.8 °C 3.1 °C 1011.7 hPa Calm     95.1% 0 mm 0 W/m2
05:39 3.7 °C 3 °C 1011.4 hPa Calm     95% 0 mm 0 W/m2
05:44 3.7 °C 3 °C 1011.4 hPa Calm     95.1% 0 mm 0 W/m2
05:49 3.7 °C 3.1 °C 1011.4 hPa Calm     96% 0 mm 0 W/m2
05:54 3.6 °C 3.1 °C 1011.4 hPa Calm     96% 0 mm 0 W/m2
05:59 3.6 °C 3 °C 1011.4 hPa Calm     96% 0 mm 0 W/m2
06:04 3.6 °C 3 °C 1011.1 hPa Calm     96% 0 mm 0 W/m2
06:09 3.6 °C 2.9 °C 1011.1 hPa Calm     95.8% 0 mm 0 W/m2
06:14 3.5 °C 2.8 °C 1011.1 hPa Calm     95.5% 0 mm 0 W/m2
06:19 3.4 °C 2.7 °C 1011.1 hPa Calm     95.2% 0 mm 0 W/m2
06:24 3.3 °C 2.6 °C 1011.1 hPa Calm     95% 0 mm 0 W/m2
06:29 3.2 °C 2.6 °C 1011.1 hPa Calm     95.4% 0 mm 0 W/m2
06:34 3.2 °C 2.6 °C 1011.1 hPa Calm     95.9% 0 mm 0 W/m2
06:39 3.1 °C 2.3 °C 1011.4 hPa Calm     95% 0 mm 0 W/m2
06:44 3.1 °C 2.3 °C 1011.1 hPa Calm     95% 0 mm 5 W/m2
06:49 3.1 °C 2.4 °C 1011.1 hPa Calm     95.5% 0 mm 9 W/m2
06:54 3.1 °C 2.5 °C 1011.1 hPa Calm     96% 0 mm 11 W/m2
06:59 3.1 °C 2.5 °C 1011.1 hPa Calm     96% 0 mm 14 W/m2
07:04 3.2 °C 2.6 °C 1011.1 hPa Calm     96% 0 mm 16 W/m2
07:09 3.1 °C 2.6 °C 1011.1 hPa Calm     96% 0 mm 30 W/m2
07:14 3.2 °C 2.6 °C 1011.1 hPa Calm     96% 0 mm 51 W/m2
07:19 3.3 °C 2.7 °C 1010.7 hPa Calm     96% 0 mm 42 W/m2
07:24 3.4 °C 2.8 °C 1010.7 hPa Calm     96% 0 mm 25 W/m2
07:29 3.7 °C 3.1 °C 1010.7 hPa Calm     96% 0 mm 39 W/m2
07:34 3.8 °C 3.2 °C 1010.7 hPa Calm     96% 0 mm 44 W/m2
07:39 3.9 °C 3.4 °C 1010.4 hPa Calm     96% 0 mm 44 W/m2
07:44 4.1 °C 3.5 °C 1010.4 hPa Calm     96% 0 mm 54 W/m2
07:49 4.2 °C 3.7 °C 1010.4 hPa Calm     96% 0 mm 53 W/m2
07:54 4.4 °C 3.8 °C 1010.7 hPa Calm     96% 0 mm 125 W/m2
07:59 4.7 °C 4.1 °C 1010.4 hPa Calm     96.3% 0 mm 190 W/m2
08:00 4.8 °C 4.4 °C 1010.4 hPa Calm     97% 0 mm 172 W/m2
08:09 5.3 °C 4.9 °C 1010.4 hPa Calm     97% 0 mm 206 W/m2
08:14 5.6 °C 5.2 °C 1010.4 hPa Calm     97% 0 mm 243 W/m2
08:19 5.9 °C 5.5 °C 1010 hPa Calm     97% 0 mm 262 W/m2
08:24 6.3 °C 5.9 °C 1010 hPa Calm     97% 0 mm 271 W/m2
08:29 6.7 °C 6.2 °C 1010 hPa Calm     97% 0 mm 281 W/m2
08:34 7 °C 6.6 °C 1010 hPa Calm     97% 0 mm 290 W/m2
08:39 7.4 °C 6.9 °C 1009.7 hPa Calm   1.6 km/h 97% 0 mm 299 W/m2
08:44 7.7 °C 7.3 °C 1009.7 hPa Calm   1.6 km/h 97% 0 mm 306 W/m2
08:49 8.2 °C 7.7 °C 1009.7 hPa Calm   1.6 km/h 97% 0 mm 313 W/m2
08:54 8.5 °C 8.1 °C 1009.7 hPa Calm   1.6 km/h 97% 0 mm 323 W/m2
08:59 8.7 °C 8.3 °C 1009.7 hPa WNW 1 km/h 4.8 km/h 97% 0 mm 336 W/m2
09:04 8.8 °C 8.2 °C 1009.4 hPa Calm   4.8 km/h 95.9% 0 mm 341 W/m2
09:09 8.9 °C 8 °C 1009.4 hPa Calm     93.9% 0 mm 287 W/m2
09:14 8.9 °C 7.7 °C 1009.4 hPa Calm     92.2% 0 mm 186 W/m2
09:19 8.9 °C 7.5 °C 1009.4 hPa WNW 0.3 km/h 3.2 km/h 91.1% 0 mm 330 W/m2
09:24 8.8 °C 7.4 °C 1009 hPa WNW 0.6 km/h 6.4 km/h 91% 0 mm 230 W/m2
09:29 8.9 °C 7.6 °C 1009 hPa WNW 0.3 km/h 6.4 km/h 91% 0 mm 160 W/m2
09:34 8.9 °C 7.6 °C 1009 hPa WNW 0.3 km/h 6.4 km/h 90.8% 0 mm 146 W/m2
09:39 8.9 °C 7.4 °C 1009 hPa WNW 0.2 km/h 3.2 km/h 90% 0 mm 107 W/m2
09:44 8.9 °C 7.2 °C 1008.7 hPa Calm   3.2 km/h 89.3% 0 mm 320 W/m2
09:49 8.9 °C 7.2 °C 1008.7 hPa Calm   3.2 km/h 89.5% 0 mm 348 W/m2
09:54 9 °C 7.6 °C 1008.7 hPa WNW 1 km/h 4.8 km/h 90.7% 0 mm 188 W/m2
09:59 9.1 °C 7.6 °C 1008.7 hPa Calm   4.8 km/h 90% 0 mm 209 W/m2
10:04 9.3 °C 7.7 °C 1008.7 hPa WNW 0.8 km/h 6.4 km/h 90% 0 mm 345 W/m2
10:09 9.6 °C 8 °C 1008.4 hPa WNW 0.3 km/h 6.4 km/h 90% 0 mm 454 W/m2
10:14 9.9 °C 8.2 °C 1008 hPa WNW 0.2 km/h 6.4 km/h 89.3% 0 mm 471 W/m2
10:19 10.3 °C 8.5 °C 1008 hPa NW 1.3 km/h 6.4 km/h 88.7% 0 mm 485 W/m2
10:24 10.6 °C 8.6 °C 1008 hPa Calm   6.4 km/h 87.1% 0 mm 497 W/m2
10:29 10.8 °C 8.4 °C 1007.7 hPa Calm   6.4 km/h 84.8% 0 mm 503 W/m2
10:34 11.1 °C 8.7 °C 1007.7 hPa Calm   6.4 km/h 85.1% 0 mm 510 W/m2
10:39 11.4 °C 9 °C 1007.7 hPa Calm     85% 0 mm 512 W/m2
10:44 11.8 °C 9.2 °C 1007.3 hPa Calm     84% 0 mm 223 W/m2
10:49 12.1 °C 9.4 °C 1007.3 hPa Calm     83.6% 0 mm 95 W/m2
10:54 12.3 °C 9.4 °C 1007.3 hPa Calm     82.6% 0 mm 176 W/m2
10:59 12.4 °C 9.6 °C 1007 hPa Calm     82.6% 0 mm 276 W/m2
11:04 12.6 °C 9.7 °C 1007 hPa Calm     82.5% 0 mm 325 W/m2
11:09 12.8 °C 9.8 °C 1006.7 hPa Calm     82% 0 mm 323 W/m2
11:13 13 °C 9.9 °C 1006.7 hPa Calm     81.5% 0 mm 207 W/m2
11:19 13.2 °C 10.1 °C 1006.7 hPa NW 0.5 km/h 4.8 km/h 80.8% 0 mm 178 W/m2
11:24 13.4 °C 9.7 °C 1006.3 hPa NW 1 km/h 6.4 km/h 78.3% 0 mm 230 W/m2
11:29 13.4 °C 9.7 °C 1006.3 hPa Calm   6.4 km/h 78% 0 mm 253 W/m2
11:34 13.6 °C 9.8 °C 1006 hPa NW 0.2 km/h 6.4 km/h 78% 0 mm 399 W/m2
11:39 13.8 °C 10.1 °C 1006 hPa Calm   3.2 km/h 78.3% 0 mm 399 W/m2
11:44 14.1 °C 10.2 °C 1006 hPa Calm   3.2 km/h 77.4% 0 mm 181 W/m2
11:49 14.3 °C 10.7 °C 1005.6 hPa Calm   3.2 km/h 78.5% 0 mm 258 W/m2
11:54 14.7 °C 10.5 °C 1005.6 hPa WSW 1.8 km/h 11.3 km/h 76.1% 0 mm 287 W/m2
11:59 15.1 °C 10.3 °C 1005.6 hPa SSE 3.1 km/h 14.5 km/h 73.3% 0 mm 169 W/m2
12:09 15.9 °C 8.7 °C 1005 hPa SSE 4.3 km/h 11.3 km/h 62.2% 0 mm 192 W/m2
12:14 16.1 °C 8.5 °C 1005 hPa SSE 3.9 km/h 14.5 km/h 60.9% 0 mm 100 W/m2
12:19 16.2 °C 8.2 °C 1005 hPa SE 3.5 km/h 14.5 km/h 59.2% 0 mm 109 W/m2
12:24 16.3 °C 7.9 °C 1004.6 hPa SE 2.9 km/h 14.5 km/h 57.8% 0 mm 188 W/m2
12:29 16.4 °C 7.9 °C 1004.6 hPa South 1.8 km/h 14.5 km/h 57.3% 0 mm 264 W/m2
12:34 16.6 °C 6.6 °C 1003.9 hPa South 6.3 km/h 16.1 km/h 51.9% 0 mm 248 W/m2
12:39 16.6 °C 6.3 °C 1003.9 hPa South 3.5 km/h 16.1 km/h 50.6% 0 mm 113 W/m2
12:44 16.6 °C 6.3 °C 1003.9 hPa South 6.3 km/h 17.7 km/h 50.7% 0 mm 81 W/m2
12:49 16.6 °C 5.8 °C 1003.9 hPa South 4.5 km/h 17.7 km/h 48.8% 0 mm 144 W/m2
12:54 16.7 °C 5.6 °C 1003.9 hPa SSE 7.1 km/h 22.5 km/h 47.8% 0 mm 225 W/m2
12:59 16.6 °C 5.3 °C 1003.6 hPa SSE 4.8 km/h 22.5 km/h 47.1% 0 mm 202 W/m2
13:04 16.5 °C 5.2 °C 1002.9 hPa SE 5.5 km/h 22.5 km/h 47.2% 0 mm 367 W/m2
13:09 16.4 °C 5.5 °C 1002.9 hPa SE 5.1 km/h 17.7 km/h 48.4% 0 mm 367 W/m2
13:14 16.4 °C 5.7 °C 1002.6 hPa SE 5.6 km/h 17.7 km/h 49.2% 0 mm 332 W/m2
13:19 16.3 °C 6.1 °C 1002.3 hPa SE 6.9 km/h 25.7 km/h 50.6% 0 mm 332 W/m2
13:24 16.3 °C 6.6 °C 1002.3 hPa South 3.1 km/h 25.7 km/h 52.4% 0 mm 374 W/m2
13:29 16.4 °C 7.1 °C 1001.9 hPa SE 2.7 km/h 25.7 km/h 53.9% 0 mm 162 W/m2
13:34 16.5 °C 7.7 °C 1001.6 hPa SSE 7.1 km/h 25.7 km/h 56% 0 mm 162 W/m2
13:39 16.3 °C 8.1 °C 1001.2 hPa SSE 5.5 km/h 25.7 km/h 58.1% 0 mm 260 W/m2
13:44 16.3 °C 8.6 °C 1000.9 hPa SSE 7.7 km/h 25.7 km/h 60.2% 0 mm 260 W/m2
13:49 16.2 °C 8.7 °C 1000.9 hPa SSE 6.4 km/h 25.7 km/h 61.1% 0 mm 214 W/m2
13:54 16.1 °C 8.8 °C 1000.9 hPa SSE 4.2 km/h 25.7 km/h 62% 0 mm 190 W/m2
13:59 16.1 °C 8.9 °C 1000.9 hPa SSE 4 km/h 25.7 km/h 62.8% 0 mm 200 W/m2
14:04 16.1 °C 9 °C 1000.9 hPa SE 5.8 km/h 25.7 km/h 63% 0 mm 153 W/m2
14:09 15.9 °C 8.9 °C 1000.6 hPa South 2.6 km/h 17.7 km/h 63.1% 0 mm 100 W/m2
14:14 15.9 °C 9 °C 1000.6 hPa South 4.8 km/h 17.7 km/h 63.5% 0 mm 113 W/m2
14:19 15.8 °C 9.2 °C 1000.6 hPa South 5.5 km/h 27.4 km/h 64.4% 0 mm 181 W/m2
14:24 15.7 °C 9.2 °C 1000.6 hPa South 8.9 km/h 27.4 km/h 65% 0 mm 67 W/m2
14:29 15.6 °C 9.3 °C 1000.6 hPa SSE 4.7 km/h 27.4 km/h 66.3% 0 mm 53 W/m2
14:34 15.4 °C 9.5 °C 1000.2 hPa SSE 3.5 km/h 27.4 km/h 67.5% 0 mm 70 W/m2
14:39 15.3 °C 9.6 °C 1000.2 hPa SSE 4.8 km/h 17.7 km/h 68.6% 0 mm 65 W/m2
14:44 15.3 °C 9.6 °C 999.9 hPa South 4.3 km/h 17.7 km/h 69% 0 mm 60 W/m2
14:49 15.3 °C 9.7 °C 999.9 hPa SSE 5.3 km/h 17.7 km/h 69.3% 0 mm 47 W/m2
14:54 15.2 °C 9.8 °C 999.9 hPa South 5.5 km/h 17.7 km/h 70% 0 mm 33 W/m2
14:59 15.2 °C 9.8 °C 999.9 hPa South 1.8 km/h 17.7 km/h 70.1% 0 mm 25 W/m2
15:04 15.1 °C 9.9 °C 999.9 hPa SSE 2.6 km/h 17.7 km/h 71% 0 mm 18 W/m2
15:09 15.1 °C 9.8 °C 999.5 hPa SE 2.9 km/h 14.5 km/h 71% 0 mm 12 W/m2
15:14 15 °C 10 °C 999.5 hPa SE 1.4 km/h 14.5 km/h 71.9% 0 mm 11 W/m2
15:19 14.9 °C 10.1 °C 999.2 hPa ESE 1.9 km/h 19.3 km/h 72.5% 0 mm 9 W/m2
15:24 14.9 °C 10.1 °C 998.9 hPa ESE 1.1 km/h 19.3 km/h 73% 0 mm 5 W/m2
15:29 14.8 °C 10.1 °C 998.9 hPa South 3.2 km/h 19.3 km/h 73% 0 mm 0 W/m2
15:34 14.8 °C 10.2 °C 998.9 hPa SE 5.1 km/h 19.3 km/h 74% 0 mm 0 W/m2
15:39 14.7 °C 10.6 °C 998.9 hPa ESE 5.5 km/h 17.7 km/h 76% 0.51 mm 0 W/m2
15:44 14.4 °C 10.8 °C 997.9 hPa SE 5.1 km/h 17.7 km/h 78.8% 1.02 mm 0 W/m2
15:49 14 °C 11 °C 999.9 hPa SW 9.5 km/h 25.7 km/h 82.2% 2.54 mm 0 W/m2
15:54 13.1 °C 10 °C 999.9 hPa WSW 14.5 km/h 48.3 km/h 81.2% 5.59 mm 0 W/m2
15:59 11.7 °C 8.5 °C 999.5 hPa WSW 6.1 km/h 48.3 km/h 80.8% 6.6 mm 0 W/m2
16:00 11.1 °C 8.2 °C 999.5 hPa SW 9.7 km/h 48.3 km/h 82% 6.6 mm 0 W/m2
16:09 10.2 °C 8.1 °C 999.9 hPa WSW 4 km/h 22.5 km/h 86.8% 8.13 mm 0 W/m2
16:14 9.8 °C 8.1 °C 999.5 hPa WSW 1.9 km/h 22.5 km/h 88.6% 8.89 mm 0 W/m2
16:19 9.7 °C 8.1 °C 999.5 hPa West 1.1 km/h 22.5 km/h 89.7% 9.65 mm 0 W/m2
16:24 9.6 °C 8.2 °C 999.5 hPa WSW 1.8 km/h 22.5 km/h 90.9% 10.16 mm 0 W/m2
16:29 9.6 °C 8.2 °C 999.5 hPa WSW 1 km/h 22.5 km/h 91% 10.16 mm 0 W/m2
16:34 9.5 °C 8.2 °C 999.9 hPa WSW 0.8 km/h 22.5 km/h 91.8% 10.16 mm 0 W/m2
16:39 9.4 °C 8.2 °C 1000.2 hPa WSW 1 km/h 14.5 km/h 92% 10.16 mm 0 W/m2
16:44 9.4 °C 8.2 °C 1000.2 hPa WSW 1 km/h 14.5 km/h 92% 10.16 mm 0 W/m2
16:49 9.3 °C 8.2 °C 1000.2 hPa WSW 2.9 km/h 17.7 km/h 92.9% 10.16 mm 0 W/m2
16:54 9.3 °C 8.2 °C 1000.9 hPa WSW 1.6 km/h 17.7 km/h 93% 10.16 mm 0 W/m2
16:59 9.2 °C 8.2 °C 1001.2 hPa WSW 9.5 km/h 30.6 km/h 93% 10.16 mm 0 W/m2
17:04 9.1 °C 8.1 °C 1001.2 hPa WSW 15 km/h 35.4 km/h 93% 10.16 mm 0 W/m2
17:09 8.8 °C 7.6 °C 1001.6 hPa West 15 km/h 41.8 km/h 92.2% 3.56 mm 0 W/m2
17:14 8.6 °C 7.2 °C 1001.2 hPa WNW 17.7 km/h 41.8 km/h 91.6% 3.56 mm 0 W/m2
17:19 8.4 °C 7 °C 1001.2 hPa WNW 16.7 km/h 41.8 km/h 91% 3.56 mm 0 W/m2
17:24 8.2 °C 6.9 °C 1001.6 hPa NW 18.8 km/h 41.8 km/h 91% 3.56 mm 0 W/m2
17:29 7.9 °C 6.4 °C 1001.6 hPa NW 12.9 km/h 41.8 km/h 90.1% 3.56 mm 0 W/m2
17:34 7.6 °C 6 °C 1001.6 hPa NW 14.2 km/h 41.8 km/h 89.5% 3.56 mm 0 W/m2
17:39 7.3 °C 5.6 °C 1001.6 hPa NW 11.9 km/h 27.4 km/h 89% 0 mm 0 W/m2
17:44 7.1 °C 5.4 °C 1001.2 hPa NW 9 km/h 27.4 km/h 89% 0 mm 0 W/m2
17:49 6.9 °C 5.3 °C 1002.3 hPa WNW 5.1 km/h 27.4 km/h 89.2% 0 mm 0 W/m2
17:54 6.8 °C 5.3 °C 1002.6 hPa West 11.9 km/h 29 km/h 90% 0 mm 0 W/m2
17:59 6.7 °C 5.1 °C 1002.6 hPa WNW 8 km/h 29 km/h 90% 0 mm 0 W/m2
18:04 6.6 °C 5.1 °C 1003.3 hPa West 8.2 km/h 29 km/h 90% 0 mm 0 W/m2
18:09 6.6 °C 5.2 °C 1003.6 hPa West 5 km/h 20.9 km/h 90.7% 0 mm 0 W/m2
18:14 6.6 °C 5.2 °C 1003.6 hPa West 6.9 km/h 20.9 km/h 91% 0 mm 0 W/m2
18:19 6.6 °C 5.3 °C 1003.6 hPa West 3.9 km/h 20.9 km/h 91% 0 mm 0 W/m2
18:24 6.7 °C 5.3 °C 1003.6 hPa WNW 9.2 km/h 25.7 km/h 91% 0 mm 0 W/m2
18:29 6.7 °C 5.4 °C 1004.3 hPa West 7.7 km/h 25.7 km/h 91% 0 mm 0 W/m2
18:34 6.8 °C 5.4 °C 1004.3 hPa West 11.4 km/h 27.4 km/h 91% 0 mm 0 W/m2
18:39 6.8 °C 5.4 °C 1004.3 hPa WNW 6.8 km/h 27.4 km/h 91% 0 mm 0 W/m2
18:44 6.8 °C 5.4 °C 1004.6 hPa West 9.2 km/h 27.4 km/h 91% 0 mm 0 W/m2
18:49 6.8 °C 5.4 °C 1004.6 hPa WNW 10.3 km/h 27.4 km/h 91% 0.25 mm 0 W/m2
18:54 6.8 °C 5.3 °C 1004.3 hPa West 6.9 km/h 27.4 km/h 90.7% 0.25 mm 0 W/m2
18:59 6.7 °C 5.1 °C 1004.6 hPa West 9 km/h 27.4 km/h 90% 0.25 mm 0 W/m2
19:04 6.5 °C 4.9 °C 1005 hPa West 11.6 km/h 27.4 km/h 89.6% 0.25 mm 0 W/m2
19:09 6.4 °C 4.8 °C 1005 hPa WNW 8.9 km/h 27.4 km/h 89% 0.25 mm 0 W/m2
19:14 6.4 °C 4.6 °C 1005.3 hPa WNW 9.7 km/h 27.4 km/h 88.4% 0.25 mm 0 W/m2
19:19 6.3 °C 4.4 °C 1005 hPa WNW 15 km/h 30.6 km/h 87.7% 0.25 mm 0 W/m2
19:24 6.3 °C 4.3 °C 1005.3 hPa NW 12.4 km/h 30.6 km/h 86.7% 0.25 mm 0 W/m2
19:29 6.3 °C 4.2 °C 1005.3 hPa NW 14.3 km/h 30.6 km/h 86% 0.25 mm 0 W/m2
19:34 6.3 °C 4 °C 1005.3 hPa NW 11.9 km/h 30.6 km/h 85.1% 0.25 mm 0 W/m2
19:39 6.3 °C 4 °C 1005.3 hPa WNW 4.8 km/h 27.4 km/h 85% 0.25 mm 0 W/m2
19:44 6.2 °C 3.9 °C 1005.3 hPa NW 7.2 km/h 27.4 km/h 85% 0.25 mm 0 W/m2
19:49 6.1 °C 3.7 °C 1005.3 hPa WNW 9 km/h 27.4 km/h 84.6% 0.25 mm 0 W/m2
19:54 6 °C 3.5 °C 1005.3 hPa WNW 11.3 km/h 27.4 km/h 84% 0.25 mm 0 W/m2
19:59 5.9 °C 3.3 °C 1005.3 hPa NW 7.4 km/h 27.4 km/h 83.2% 0.25 mm 0 W/m2
20:00 5.9 °C 3.2 °C 1005.3 hPa NW 1.6 km/h 27.4 km/h 83% 0.25 mm 0 W/m2
20:09 5.7 °C 3.3 °C 1005.6 hPa WNW 3.2 km/h 12.9 km/h 84% 0 mm 0 W/m2
20:14 5.6 °C 3.2 °C 1005.6 hPa WNW 4.3 km/h 17.7 km/h 84% 0 mm 0 W/m2
20:19 5.6 °C 3 °C 1005.6 hPa WNW 3.1 km/h 17.7 km/h 83.8% 0 mm 0 W/m2
20:24 5.4 °C 2.9 °C 1005.6 hPa WNW 4.7 km/h 17.7 km/h 83.8% 0 mm 0 W/m2
20:29 5.4 °C 2.9 °C 1006 hPa WNW 4.8 km/h 17.7 km/h 83.7% 0 mm 0 W/m2
20:34 5.3 °C 2.8 °C 1006 hPa NW 0.3 km/h 17.7 km/h 83.9% 0 mm 0 W/m2
20:39 5.3 °C 2.8 °C 1006 hPa NW 0.2 km/h 4.8 km/h 84% 0 mm 0 W/m2
20:44 5.2 °C 2.8 °C 1006 hPa Calm   4.8 km/h 84% 0 mm 0 W/m2
20:49 5.1 °C 2.7 °C 1006 hPa NW 0.2 km/h 4.8 km/h 84% 0 mm 0 W/m2
20:54 5.1 °C 2.7 °C 1006 hPa WNW 3.1 km/h 17.7 km/h 85.1% 0 mm 0 W/m2
20:59 4.9 °C 2.6 °C 1006.3 hPa NW 0.6 km/h 17.7 km/h 85% 0 mm 0 W/m2
21:04 4.9 °C 2.6 °C 1006.3 hPa NW 0.3 km/h 17.7 km/h 85% 0 mm 0 W/m2
21:09 4.8 °C 2.5 °C 1006.3 hPa Calm   9.7 km/h 85% 0 mm 0 W/m2
21:14 4.7 °C 2.4 °C 1006.3 hPa Calm   9.7 km/h 85.2% 0 mm 0 W/m2
21:19 4.6 °C 2.4 °C 1006.7 hPa NW 0.2 km/h 9.7 km/h 86% 0 mm 0 W/m2
21:24 4.5 °C 2.4 °C 1006.3 hPa West 0.8 km/h 9.7 km/h 86% 0 mm 0 W/m2
21:29 4.4 °C 2.3 °C 1006.7 hPa Calm   9.7 km/h 86% 0 mm 0 W/m2
21:34 4.3 °C 2.2 °C 1006.7 hPa Calm   9.7 km/h 86% 0 mm 0 W/m2
21:39 4.2 °C 2.1 °C 1006.7 hPa West 0.2 km/h 6.4 km/h 86% 0 mm 0 W/m2
21:44 4.2 °C 2.2 °C 1007 hPa Calm   6.4 km/h 87% 0 mm 0 W/m2
21:49 4.1 °C 2.1 °C 1007 hPa Calm   6.4 km/h 87% 0 mm 0 W/m2
21:54 4 °C 2.1 °C 1007 hPa Calm   6.4 km/h 87% 0 mm 0 W/m2
21:59 3.9 °C 2 °C 1007.3 hPa Calm   6.4 km/h 87% 0 mm 0 W/m2
22:04 3.9 °C 2.1 °C 1007.3 hPa Calm   6.4 km/h 87.7% 0 mm 0 W/m2
22:09 3.8 °C 2.1 °C 1007.3 hPa Calm     88% 0 mm 0 W/m2
22:14 3.8 °C 2.1 °C 1007.3 hPa Calm     88.5% 0 mm 0 W/m2
22:19 3.9 °C 2.4 °C 1007.3 hPa Calm     89.6% 0 mm 0 W/m2
22:24 4.1 °C 2.7 °C 1007.3 hPa Calm     90.8% 0 mm 0 W/m2
22:29 4.2 °C 2.8 °C 1007.3 hPa Calm     91% 0 mm 0 W/m2
22:34 4.1 °C 2.8 °C 1007.3 hPa Calm     91% 0 mm 0 W/m2
22:39 4 °C 2.7 °C 1007.3 hPa Calm     91% 0 mm 0 W/m2
22:44 3.9 °C 2.6 °C 1007.3 hPa West 0.2 km/h 3.2 km/h 91% 0 mm 0 W/m2
22:49 3.9 °C 2.6 °C 1007.7 hPa Calm   3.2 km/h 91% 0 mm 0 W/m2
22:54 3.9 °C 2.6 °C 1007.7 hPa Calm   3.2 km/h 91% 0 mm 0 W/m2
22:59 3.9 °C 2.6 °C 1007.7 hPa Calm   3.2 km/h 91% 0 mm 0 W/m2
23:00 3.9 °C 2.6 °C 1007.7 hPa Calm   3.2 km/h 91% 0 mm 0 W/m2
23:09 3.8 °C 2.4 °C 1007.7 hPa Calm     90.6% 0 mm 0 W/m2
23:14 3.7 °C 2.2 °C 1008 hPa WSW 0.6 km/h 8 km/h 90% 0 mm 0 W/m2
23:19 3.7 °C 2.2 °C 1008 hPa WSW 0.2 km/h 8 km/h 90% 0 mm 0 W/m2
23:24 3.6 °C 2.2 °C 1008 hPa Calm   8 km/h 90% 0 mm 0 W/m2
23:29 3.6 °C 2.1 °C 1008 hPa Calm   8 km/h 90% 0 mm 0 W/m2
23:34 3.6 °C 2.1 °C 1008 hPa WSW 0.5 km/h 8 km/h 90% 0 mm 0 W/m2
23:39 3.4 °C 1.9 °C 1008 hPa Calm   6.4 km/h 89.6% 0 mm 0 W/m2
23:44 3.4 °C 1.8 °C 1008.4 hPa Calm   6.4 km/h 89% 0 mm 0 W/m2
23:49 3.4 °C 1.8 °C 1008 hPa WSW 1.3 km/h 6.4 km/h 89% 0 mm 0 W/m2
23:54 3.4 °C 1.9 °C 1008.4 hPa WSW 0.8 km/h 8 km/h 89.5% 0 mm 0 W/m2
23:59 3.4 °C 1.8 °C 1008 hPa WSW 0.6 km/h 8 km/h 89% 0 mm 0 W/m2
Hartford County Weather
Compliments of Weather Underground - 4 mb